createdAt,value
2023-12-22T00:01:32.230Z,8.50
2023-12-22T00:04:34.723Z,15.63
2023-12-22T00:07:36.753Z,9.57
2023-12-22T00:10:38.769Z,10.60
2023-12-22T00:13:41.150Z,9.57
2023-12-22T00:16:43.183Z,12.82
2023-12-22T00:19:45.630Z,7.00
2023-12-22T00:22:47.999Z,7.43
2023-12-22T00:25:50.409Z,8.32
2023-12-22T00:28:52.810Z,9.03
2023-12-22T00:31:55.035Z,12.07
2023-12-22T00:34:59.542Z,12.23
2023-12-22T00:38:01.721Z,12.80
2023-12-22T00:41:03.956Z,10.32
2023-12-22T00:44:06.270Z,11.18
2023-12-22T00:47:09.183Z,11.40
2023-12-22T00:50:11.520Z,12.03
2023-12-22T00:53:13.735Z,11.90
2023-12-22T00:56:15.902Z,10.90
2023-12-22T00:59:17.994Z,12.90
2023-12-22T01:02:21.574Z,9.95
2023-12-22T01:05:24.059Z,14.60
2023-12-22T01:08:26.344Z,6.82
2023-12-22T01:11:28.397Z,13.65
2023-12-22T01:14:31.091Z,7.68
2023-12-22T01:17:33.465Z,7.70
2023-12-22T01:20:35.521Z,7.23
2023-12-22T01:23:37.552Z,7.82
2023-12-22T01:26:39.579Z,9.40
2023-12-22T01:29:41.638Z,10.87
2023-12-22T01:32:43.908Z,5.63
2023-12-22T01:35:46.148Z,4.53
2023-12-22T01:38:49.069Z,7.07
2023-12-22T01:41:51.102Z,5.00
2023-12-22T01:44:53.090Z,5.20
2023-12-22T01:47:55.707Z,3.47
2023-12-22T01:51:00.829Z,3.20
2023-12-22T01:54:02.986Z,5.05
2023-12-22T01:57:05.340Z,1.90
2023-12-22T02:00:09.448Z,2.20
2023-12-22T02:03:15.659Z,3.75
2023-12-22T02:06:17.898Z,3.78
2023-12-22T02:09:20.162Z,1.58
2023-12-22T02:12:22.465Z,1.30
2023-12-22T02:15:24.484Z,2.47
2023-12-22T02:18:31.757Z,0.47
2023-12-22T02:21:33.815Z,2.77
2023-12-22T02:24:36.198Z,1.15
2023-12-22T02:27:52.239Z,1.77
2023-12-22T02:31:04.596Z,0.70
2023-12-22T02:34:10.643Z,2.05
2023-12-22T02:37:13.668Z,1.23
2023-12-22T02:40:16.531Z,1.75
2023-12-22T02:43:18.820Z,0.82
2023-12-22T02:46:21.031Z,0.45
2023-12-22T02:49:23.378Z,0.80
2023-12-22T02:52:26.165Z,0.20
2023-12-22T02:55:28.633Z,0.52
2023-12-22T02:58:31.040Z,0.90
2023-12-22T03:01:33.378Z,1.50
2023-12-22T03:04:35.871Z,1.05
2023-12-22T03:07:38.340Z,0.73
2023-12-22T03:10:40.710Z,0.52
2023-12-22T03:13:43.061Z,1.58
2023-12-22T03:16:45.380Z,5.57
2023-12-22T03:19:47.723Z,0.60
2023-12-22T03:22:50.089Z,0.77
2023-12-22T03:25:52.461Z,0.90
2023-12-22T03:28:54.810Z,2.28
2023-12-22T03:31:56.936Z,2.03
2023-12-22T03:34:59.408Z,0.73
2023-12-22T03:38:02.081Z,1.02
2023-12-22T03:41:04.341Z,1.50
2023-12-22T03:44:06.546Z,5.75
2023-12-22T03:47:08.840Z,1.80
2023-12-22T03:50:11.715Z,1.13
2023-12-22T03:53:14.712Z,1.00
2023-12-22T03:56:16.946Z,3.88
2023-12-22T03:59:19.976Z,1.70
2023-12-22T04:02:22.035Z,0.50
2023-12-22T04:05:24.047Z,0.30
2023-12-22T04:08:26.138Z,0.82
2023-12-22T04:11:28.114Z,1.58
2023-12-22T04:14:30.349Z,0.00
2023-12-22T04:17:32.642Z,2.65
2023-12-22T04:20:35.192Z,1.98
2023-12-22T04:23:37.643Z,1.90
2023-12-22T04:26:39.897Z,0.43
2023-12-22T04:29:42.074Z,1.20
2023-12-22T04:32:44.183Z,0.87
2023-12-22T04:35:46.150Z,2.60
2023-12-22T04:38:48.347Z,1.50
2023-12-22T04:41:50.391Z,0.35
2023-12-22T04:44:55.692Z,0.17
2023-12-22T04:51:00.631Z,0.43
2023-12-22T04:54:02.840Z,0.50
2023-12-22T04:57:05.668Z,0.90
2023-12-22T05:00:08.388Z,1.27
2023-12-22T05:03:10.685Z,0.50
2023-12-22T05:06:13.206Z,0.52
2023-12-22T05:09:16.278Z,0.52
2023-12-22T05:12:18.473Z,1.30
2023-12-22T05:15:20.474Z,0.75
2023-12-22T05:18:22.765Z,2.58
2023-12-22T05:21:25.232Z,0.10
2023-12-22T05:24:27.507Z,0.73
2023-12-22T05:27:29.845Z,0.55
2023-12-22T05:30:31.756Z,1.45
2023-12-22T05:33:34.000Z,3.07
2023-12-22T05:36:36.393Z,2.20
2023-12-22T05:39:38.346Z,1.55
2023-12-22T05:42:40.889Z,1.13
2023-12-22T05:45:43.136Z,0.68
2023-12-22T05:48:45.236Z,2.58
2023-12-22T05:51:47.486Z,0.10
2023-12-22T05:54:49.806Z,0.30
2023-12-22T05:57:52.151Z,1.38
2023-12-22T06:00:54.402Z,4.72
2023-12-22T06:03:56.567Z,0.73
2023-12-22T06:06:58.852Z,1.02
2023-12-22T06:10:00.866Z,0.90
2023-12-22T06:13:04.750Z,0.85
2023-12-22T06:16:07.035Z,2.42
2023-12-22T06:19:09.450Z,0.68
2023-12-22T06:22:11.674Z,1.10
2023-12-22T06:25:14.132Z,0.80
2023-12-22T06:28:18.165Z,0.60
2023-12-22T06:31:22.107Z,1.35
2023-12-22T06:34:25.152Z,0.73
2023-12-22T06:37:27.520Z,8.73
2023-12-22T06:40:29.620Z,3.10
2023-12-22T06:43:31.675Z,0.57
2023-12-22T06:46:34.801Z,1.65
2023-12-22T06:49:37.138Z,0.45
2023-12-22T06:52:39.223Z,0.65
2023-12-22T06:55:41.675Z,2.07
2023-12-22T06:58:44.097Z,3.80
2023-12-22T07:01:55.481Z,2.40
2023-12-22T07:05:22.239Z,1.00
2023-12-22T07:08:24.498Z,2.33
2023-12-22T07:11:31.685Z,9.68
2023-12-22T07:14:39.892Z,1.45
2023-12-22T07:17:42.240Z,7.78
2023-12-22T07:20:44.352Z,1.90
2023-12-22T07:23:46.655Z,1.33
2023-12-22T07:26:48.700Z,3.90
2023-12-22T07:29:51.738Z,2.55
2023-12-22T07:32:55.120Z,2.80
2023-12-22T07:35:57.664Z,0.33
2023-12-22T07:39:00.507Z,2.75
2023-12-22T07:42:02.600Z,1.25
2023-12-22T07:45:06.202Z,0.75
2023-12-22T07:48:08.789Z,2.97
2023-12-22T07:51:11.189Z,1.85
2023-12-22T07:54:13.488Z,2.00
2023-12-22T07:57:15.892Z,9.93
2023-12-22T08:00:21.336Z,0.57
2023-12-22T08:03:23.702Z,3.03
2023-12-22T08:06:25.969Z,2.20
2023-12-22T08:09:28.014Z,4.35
2023-12-22T08:12:30.391Z,3.60
2023-12-22T08:15:36.761Z,1.38
2023-12-22T08:18:39.762Z,2.85
2023-12-22T08:21:46.306Z,2.33
2023-12-22T08:24:50.381Z,2.67
2023-12-22T08:27:53.116Z,0.77
2023-12-22T08:30:55.189Z,1.13
2023-12-22T08:33:57.308Z,7.40
2023-12-22T08:37:00.892Z,1.50
2023-12-22T08:40:03.684Z,5.97
2023-12-22T08:43:07.527Z,2.20
2023-12-22T08:46:10.960Z,1.05
2023-12-22T08:49:13.432Z,4.40
2023-12-22T08:52:15.408Z,2.65
2023-12-22T08:55:17.467Z,1.67
2023-12-22T08:58:19.471Z,1.10
2023-12-22T09:01:23.531Z,0.60
2023-12-22T09:04:26.029Z,1.52
2023-12-22T09:07:28.703Z,3.93
2023-12-22T09:10:30.783Z,2.80
2023-12-22T09:13:33.067Z,2.25
2023-12-22T09:16:35.459Z,0.45
2023-12-22T09:19:40.152Z,2.78
2023-12-22T09:22:42.734Z,0.50
2023-12-22T09:25:45.187Z,7.38
2023-12-22T09:28:47.839Z,1.10
2023-12-22T09:31:50.434Z,0.68
2023-12-22T09:34:52.767Z,1.95
2023-12-22T09:37:55.264Z,1.40
2023-12-22T09:40:58.481Z,2.13
2023-12-22T09:44:02.886Z,1.65
2023-12-22T09:47:06.659Z,0.60
2023-12-22T09:50:09.732Z,0.52
2023-12-22T09:53:15.287Z,1.83
2023-12-22T09:56:19.586Z,0.43
2023-12-22T09:59:23.310Z,12.30
2023-12-22T10:02:30.503Z,0.88
2023-12-22T10:05:32.943Z,2.92
2023-12-22T10:08:36.548Z,1.23
2023-12-22T10:11:40.564Z,9.88
2023-12-22T10:14:44.747Z,0.50
2023-12-22T10:17:48.310Z,2.15
2023-12-22T10:20:51.505Z,0.88
2023-12-22T10:23:54.908Z,1.02
2023-12-22T10:26:57.726Z,0.52
2023-12-22T10:30:01.368Z,0.50
2023-12-22T10:33:09.022Z,0.90
2023-12-22T10:36:12.033Z,0.30
2023-12-22T10:39:15.426Z,0.40
2023-12-22T10:42:19.555Z,3.13
2023-12-22T10:45:23.186Z,0.10
2023-12-22T10:48:25.350Z,0.98
2023-12-22T10:51:27.420Z,1.17
2023-12-22T10:54:31.408Z,1.33
2023-12-22T10:57:39.162Z,6.15
2023-12-22T11:00:45.854Z,1.90
2023-12-22T11:03:52.226Z,1.35
2023-12-22T11:06:58.901Z,0.60
2023-12-22T11:10:04.829Z,0.10
2023-12-22T11:13:07.790Z,1.02
2023-12-22T11:16:10.881Z,1.20
2023-12-22T11:19:14.854Z,2.67
2023-12-22T11:22:19.862Z,1.65
2023-12-22T11:25:23.729Z,0.45
2023-12-22T11:28:26.641Z,1.00
2023-12-22T11:31:32.643Z,0.97
2023-12-22T11:34:38.817Z,0.10
2023-12-22T11:37:43.378Z,0.50
2023-12-22T11:40:46.081Z,2.50
2023-12-22T11:43:49.493Z,12.10
2023-12-22T11:47:04.622Z,1.55
2023-12-22T11:50:11.051Z,0.85
2023-12-22T11:53:19.636Z,0.88
2023-12-22T11:56:22.573Z,1.10
2023-12-22T11:59:25.409Z,1.38
2023-12-22T12:02:28.756Z,0.83
2023-12-22T12:05:31.345Z,2.03
2023-12-22T12:08:34.185Z,1.10
2023-12-22T12:12:01.366Z,1.00
2023-12-22T12:15:18.831Z,1.45
2023-12-22T12:18:25.852Z,0.73
2023-12-22T12:21:28.619Z,0.30
2023-12-22T12:24:31.113Z,2.28
2023-12-22T12:27:35.807Z,1.83
2023-12-22T12:30:39.511Z,0.82
2023-12-22T12:33:43.218Z,1.23
2023-12-22T12:36:47.233Z,1.50
2023-12-22T12:39:54.777Z,0.22
2023-12-22T12:42:57.977Z,3.83
2023-12-22T12:46:07.403Z,1.65
2023-12-22T12:49:16.662Z,0.35
2023-12-22T12:52:20.349Z,0.57
2023-12-22T12:55:24.385Z,0.85
2023-12-22T12:58:32.188Z,0.50
2023-12-22T13:01:39.963Z,0.32
2023-12-22T13:04:43.872Z,1.30
2023-12-22T13:07:46.484Z,1.50
2023-12-22T13:10:49.471Z,0.80
2023-12-22T13:13:52.858Z,1.13
2023-12-22T13:16:58.236Z,1.10
2023-12-22T13:20:01.415Z,0.68
2023-12-22T13:23:04.716Z,1.35
2023-12-22T13:26:07.599Z,0.77
2023-12-22T13:29:11.830Z,1.50
2023-12-22T13:32:21.626Z,5.05
2023-12-22T13:35:25.242Z,1.27
2023-12-22T13:38:31.401Z,3.05
2023-12-22T13:41:38.862Z,1.45
2023-12-22T13:44:48.232Z,1.90
2023-12-22T13:47:51.175Z,3.00
2023-12-22T13:51:00.869Z,5.97
2023-12-22T13:54:03.710Z,1.50
2023-12-22T13:57:06.092Z,1.20
2023-12-22T14:00:20.424Z,3.80
2023-12-22T14:03:22.944Z,4.03
2023-12-22T14:06:28.945Z,1.77
2023-12-22T14:09:34.655Z,8.05
2023-12-22T14:12:38.912Z,4.85
2023-12-22T14:15:45.572Z,2.30
2023-12-22T14:18:50.082Z,2.35
2023-12-22T14:21:52.498Z,3.42
2023-12-22T14:24:55.070Z,13.52
2023-12-22T14:27:58.827Z,20.95
2023-12-22T14:31:02.171Z,15.25
2023-12-22T14:34:04.531Z,11.77
2023-12-22T14:37:06.813Z,8.47
2023-12-22T14:40:09.416Z,4.65
2023-12-22T14:43:11.865Z,2.17
2023-12-22T14:46:14.229Z,1.20
2023-12-22T14:49:16.522Z,1.25
2023-12-22T14:52:18.738Z,4.10
2023-12-22T14:55:21.153Z,2.05
2023-12-22T14:58:23.652Z,0.65
2023-12-22T15:01:26.635Z,0.80
2023-12-22T15:04:29.024Z,0.30
2023-12-22T15:07:31.298Z,1.77
2023-12-22T15:10:33.797Z,1.85
2023-12-22T15:13:39.581Z,1.85
2023-12-22T15:16:42.666Z,1.80
2023-12-22T15:19:44.853Z,3.03
2023-12-22T15:22:47.541Z,2.88
2023-12-22T15:25:49.776Z,4.20
2023-12-22T15:28:52.143Z,7.50
2023-12-22T15:32:00.958Z,6.32
2023-12-22T15:35:03.221Z,1.38
2023-12-22T15:38:05.913Z,1.77
2023-12-22T15:41:08.475Z,0.22
2023-12-22T15:44:10.639Z,2.17
2023-12-22T15:47:12.854Z,1.63
2023-12-22T15:50:15.125Z,2.60
2023-12-22T15:53:17.616Z,2.03
2023-12-22T15:56:20.109Z,3.85
2023-12-22T15:59:26.672Z,2.30
2023-12-22T16:02:29.024Z,3.28
2023-12-22T16:05:31.391Z,2.70
2023-12-22T16:08:37.065Z,3.23
2023-12-22T16:11:39.699Z,1.13
2023-12-22T16:14:42.347Z,1.27
2023-12-22T16:17:45.107Z,1.87
2023-12-22T16:20:47.457Z,1.42
2023-12-22T16:23:49.931Z,1.13
2023-12-22T16:26:57.723Z,0.88
2023-12-22T16:30:00.204Z,8.15
2023-12-22T16:33:02.600Z,1.77
2023-12-22T16:36:11.958Z,2.25
2023-12-22T16:39:14.496Z,3.63
2023-12-22T16:42:17.375Z,1.40
2023-12-22T16:45:19.954Z,2.72
2023-12-22T16:48:22.337Z,4.30
2023-12-22T16:51:24.979Z,4.03
2023-12-22T16:54:27.022Z,4.93
2023-12-22T16:57:29.424Z,8.10
2023-12-22T17:00:31.649Z,4.28
2023-12-22T17:03:36.222Z,2.75
2023-12-22T17:06:48.287Z,12.65
2023-12-22T17:09:50.555Z,5.57
2023-12-22T17:12:53.217Z,5.30
2023-12-22T17:15:55.769Z,6.28
2023-12-22T17:18:58.094Z,5.00
2023-12-22T17:22:00.451Z,11.80
2023-12-22T17:25:02.944Z,9.15
2023-12-22T17:28:05.864Z,14.43
2023-12-22T17:31:08.582Z,4.97
2023-12-22T17:34:10.901Z,3.03
2023-12-22T17:37:13.474Z,4.55
2023-12-22T17:40:16.225Z,1.83
2023-12-22T17:43:18.590Z,4.40
2023-12-22T17:46:21.277Z,4.13
2023-12-22T17:49:23.499Z,3.60
2023-12-22T17:52:25.743Z,5.05
2023-12-22T17:55:28.277Z,6.32
2023-12-22T17:58:31.810Z,5.00
2023-12-22T18:01:35.040Z,4.38
2023-12-22T18:04:37.734Z,4.40
2023-12-22T18:07:40.034Z,3.05
2023-12-22T18:10:42.160Z,1.93
2023-12-22T18:13:44.439Z,1.15
2023-12-22T18:16:46.706Z,1.75
2023-12-22T18:19:48.994Z,0.37
2023-12-22T18:22:51.412Z,5.50
2023-12-22T18:25:53.589Z,2.20
2023-12-22T18:28:56.017Z,3.58
2023-12-22T18:31:58.184Z,3.05
2023-12-22T18:35:00.403Z,1.90
2023-12-22T18:38:03.001Z,1.38
2023-12-22T18:41:05.524Z,1.47
2023-12-22T18:44:08.015Z,1.80
2023-12-22T18:47:10.318Z,3.47
2023-12-22T18:50:12.672Z,1.23
2023-12-22T18:53:15.452Z,2.35
2023-12-22T18:56:26.309Z,1.75
2023-12-22T18:59:28.555Z,7.70
2023-12-22T19:02:45.861Z,1.70
2023-12-22T19:05:52.768Z,1.92
2023-12-22T19:08:54.963Z,1.67
2023-12-22T19:11:59.257Z,2.90
2023-12-22T19:15:01.682Z,2.08
2023-12-22T19:18:04.381Z,3.53
2023-12-22T19:21:06.431Z,3.47
2023-12-22T19:24:08.722Z,9.73
2023-12-22T19:27:11.504Z,1.42
2023-12-22T19:30:13.809Z,0.28
2023-12-22T19:33:16.060Z,2.75
2023-12-22T19:36:18.414Z,0.82
2023-12-22T19:39:20.477Z,2.65
2023-12-22T19:42:22.781Z,5.43
2023-12-22T19:45:25.415Z,0.45
2023-12-22T19:48:27.857Z,1.20
2023-12-22T19:51:30.247Z,0.17
2023-12-22T19:54:32.532Z,1.55
2023-12-22T19:57:34.785Z,1.35
2023-12-22T20:00:36.872Z,3.22
2023-12-22T20:03:38.975Z,3.25
2023-12-22T20:06:44.060Z,4.55
2023-12-22T20:09:47.122Z,1.95
2023-12-22T20:12:49.662Z,0.50
2023-12-22T20:15:51.875Z,9.88
2023-12-22T20:18:54.324Z,0.73
2023-12-22T20:21:57.021Z,1.83
2023-12-22T20:24:59.025Z,1.23
2023-12-22T20:28:04.141Z,0.20
2023-12-22T20:31:06.975Z,0.50
2023-12-22T20:34:09.289Z,1.63
2023-12-22T20:37:11.363Z,2.20
2023-12-22T20:40:13.562Z,5.50
2023-12-22T20:43:15.975Z,2.33
2023-12-22T20:46:18.259Z,2.78
2023-12-22T20:49:20.397Z,2.00
2023-12-22T20:52:22.732Z,1.27
2023-12-22T20:55:24.938Z,2.38
2023-12-22T20:58:27.835Z,1.60
2023-12-22T21:01:29.949Z,1.75
2023-12-22T21:04:32.366Z,0.13
2023-12-22T21:07:34.524Z,0.52
2023-12-22T21:10:37.821Z,2.05
2023-12-22T21:13:43.179Z,0.83
2023-12-22T21:16:46.594Z,1.50
2023-12-22T21:19:49.043Z,0.57
2023-12-22T21:22:51.132Z,0.90
2023-12-22T21:25:53.280Z,1.30
2023-12-22T21:28:57.948Z,0.15
2023-12-22T21:32:00.496Z,1.85
2023-12-22T21:35:02.675Z,0.98
2023-12-22T21:38:05.155Z,1.58
2023-12-22T21:41:08.173Z,0.52
2023-12-22T21:44:10.863Z,1.67
2023-12-22T21:47:14.723Z,1.20
2023-12-22T21:50:17.166Z,2.17
2023-12-22T21:53:19.614Z,5.23
2023-12-22T21:56:23.934Z,4.57
2023-12-22T21:59:28.522Z,0.40
2023-12-22T22:02:31.555Z,1.33
2023-12-22T22:05:33.910Z,1.23
2023-12-22T22:08:36.483Z,0.82
2023-12-22T22:11:39.441Z,1.33
2023-12-22T22:14:41.548Z,0.10
2023-12-22T22:17:43.896Z,0.30
2023-12-22T22:20:46.162Z,0.05
2023-12-22T22:23:48.437Z,0.20
2023-12-22T22:26:50.679Z,1.00
2023-12-22T22:29:52.896Z,0.20
2023-12-22T22:32:55.148Z,0.30
2023-12-22T22:35:57.728Z,1.02
2023-12-22T22:39:00.265Z,1.05
2023-12-22T22:42:02.771Z,0.40
2023-12-22T22:45:05.072Z,0.37
2023-12-22T22:48:07.969Z,0.45
2023-12-22T22:51:10.240Z,1.23
2023-12-22T22:54:12.427Z,0.87
2023-12-22T22:57:14.936Z,0.00
2023-12-22T23:00:23.700Z,0.10
2023-12-22T23:03:25.999Z,0.20
2023-12-22T23:06:31.097Z,0.10
2023-12-22T23:09:33.292Z,0.10
2023-12-22T23:12:35.629Z,0.22
2023-12-22T23:15:37.844Z,1.60
2023-12-22T23:18:40.246Z,2.28
2023-12-22T23:21:42.662Z,1.48
2023-12-22T23:24:44.767Z,0.83
2023-12-22T23:27:48.008Z,0.15
2023-12-22T23:30:50.197Z,0.28
2023-12-22T23:33:52.527Z,1.63
2023-12-22T23:36:54.842Z,2.15
2023-12-22T23:39:57.472Z,1.38
2023-12-22T23:42:59.503Z,5.03
2023-12-22T23:46:01.622Z,1.90
2023-12-22T23:49:04.306Z,4.88
2023-12-22T23:52:06.791Z,0.55
2023-12-22T23:55:09.167Z,0.77
2023-12-22T23:58:11.204Z,1.38
